• Join FlightAware (Why Join?)
  • Login
  • US Flag 
08:00PM EDT


 

Airport Tracker/Info


-or-


 

Live Flight TrackerFlight Track Log ✈ UAL1208 ✈ 03-May-2013 ✈ KSFO - KBWI

Flight Track Log - Related Links

Times and Time Zones

All times are in EDT time to prevent confusion due to time zone crossing. See the UAL1208 flight status page for this flight to view local times or setup timezone preferences in your user account.

Time Position Orientation Groundspeed Altitude Reporting Facility
EDT Latitude Longitude Course Direction KTS MPH feet Rate Location/Type
07:06PM 37.6333 -122.3500 67° East 185 213 1,200  Level Northern Cal TRACON
07:07PM 37.6833 -122.3000 38° Northeast 230 265 3,500 2,040 Climbing Northern Cal TRACON
07:08PM 37.7031 -122.2719 48° Northeast 235 270 4,300 2,640 Climbing Oakland Center
07:09PM 37.6448 -122.2710 72° East  Level FlightAware Approximate
07:09PM 37.7542 -122.2047 46° Northeast 260 299 7,500  Level Oakland Center
07:10PM 37.6960 -122.1247 58° Northeast  Level FlightAware Approximate
07:10PM 37.7786 -122.1089 72° East 287 330 10,300  Level Oakland Center
07:11PM 37.7419 -121.9744 67° East  Level FlightAware Approximate
07:11PM 37.8075 -122.0047 71° East 312 359 12,200  Level Oakland Center
07:12PM 37.8389 -121.8853 72° East 352 405 14,000 1,800 Climbing Oakland Center
07:13PM 37.8750 -121.7528 71° East 393 452 15,900 2,340 Climbing Oakland Center
07:14PM 37.9125 -121.6169 71° East 408 470 18,800 2,580 Climbing Oakland Center
07:15PM 37.9536 -121.4583 72° East 413 475 21,300 2,040 Climbing Oakland Center
07:16PM 37.9919 -121.3158 71° East 426 490 23,000 1,620 Climbing Oakland Center
07:17PM 38.0300 -121.1694 72° East 438 504 24,700 1,440 Climbing Oakland Center
07:18PM 38.0700 -121.0189 71° East 450 518 26,000 1,260 Climbing Oakland Center
07:19PM 38.1083 -120.8639 73° East 463 533 27,300 1,140 Climbing Oakland Center
07:20PM 38.1469 -120.7031 73° East 475 547 28,400 1,260 Climbing Oakland Center
07:21PM 38.1936 -120.5072 73° East 485 558 29,900 1,260 Climbing Oakland Center
07:22PM 38.2325 -120.3433 73° East 487 560 31,000 1,080 Climbing Oakland Center
07:23PM 38.2725 -120.1756 73° East 497 572 32,100 1,020 Climbing Oakland Center
07:24PM 38.3128 -120.0083 73° East 496 571 33,200 1,020 Climbing Oakland Center
07:25PM 38.3531 -119.8389 73° East 498 573 34,200 840 Climbing Oakland Center
07:26PM 38.3914 -119.6694 74° East 500 575 35,000 360 Climbing Oakland Center
07:27PM 38.4275 -119.4975 75° East 501 577 35,000 240 Level Oakland Center
07:28PM 38.4675 -119.3297 73° East 499 574 35,500 660 Climbing Oakland Center
07:29PM 38.5078 -119.1247 76° East 498 573 36,400 720 Climbing Oakland Center
07:30PM 38.5261 -118.9489 82° East 502 578 37,000 240 Climbing Oakland Center
07:31PM 38.5439 -118.7700 83° East 508 585 37,000  Level Oakland Center
07:32PM 38.5606 -118.5917 83° East 510 587 37,000  Level Oakland Center
07:33PM 38.5781 -118.4147 83° East 507 583 37,000  Level Oakland Center
07:34PM 38.5953 -118.2350 83° East 510 587 37,000  Level Oakland Center
07:35PM 38.6128 -118.0383 83° East 511 588 37,000  Level Oakland Center
07:36PM 38.6311 -117.8578 83° East 510 587 37,000  Level Oakland Center
07:37PM 38.6461 -117.6761 84° East 511 588 37,000  Level Oakland Center
07:38PM 38.6625 -117.4947 83° East 510 587 37,000  Level Oakland Center
07:39PM 38.6778 -117.3136 84° East 509 586 37,000  Level Oakland Center
07:40PM 38.7044 -117.1333 79° East 512 589 37,000  Level Oakland Center
07:41PM 38.7314 -116.9525 79° East 513 590 37,000  Level Oakland Center
07:42PM 38.7631 -116.7342 79° East 516 594 37,000  Level Salt Lake Center
07:43PM 38.7894 -116.5517 79° East 519 597 37,000  Level Salt Lake Center
07:44PM 38.8156 -116.3689 80° East 520 598 37,000  Level Salt Lake Center
07:45PM 38.8419 -116.1836 80° East 526 605 37,000  Level Salt Lake Center
07:46PM 38.8872 -116.0089 72° East 517 595 37,000  Level Salt Lake Center
07:48PM 38.9328 -115.8317 72° East 522 601 37,000  Level Salt Lake Center
07:49PM 38.9828 -115.6558 70° East 522 601 37,000  Level Salt Lake Center
07:50PM 39.0300 -115.4794 71° East 523 602 37,000  Level Salt Lake Center
07:51PM 39.0825 -115.2919 70° East 525 604 37,000  Level Salt Lake Center
07:52PM 39.1292 -115.1164 71° East 521 600 37,000  Level Salt Lake Center
07:53PM 39.1772 -114.9339 71° East 520 598 37,000  Level Salt Lake Center
07:54PM 39.2206 -114.7339 74° East 520 598 37,000  Level Salt Lake Center
07:55PM 39.2483 -114.5586 78° East 522 601 37,000  Level Salt Lake Center
07:56PM 39.2800 -114.3550 79° East 528 608 37,000  Level Salt Lake Center
07:57PM 39.3097 -114.1672 78° East 532 612 37,000  Level Salt Lake Center
07:58PM 39.3367 -113.9819 79° East 527 606 37,000  Level Salt Lake Center
07:59PM 39.3639 -113.7967 79° East 525 604 37,000  Level Salt Lake Center
08:00PM 39.3903 -113.6106 80° East 526 605 37,000  Level Salt Lake Center
08:01PM 39.4228 -113.3892 79° East 523 602 37,000  Level Salt Lake Center
08:02PM 39.4486 -113.2064 80° East 519 597 37,000  Level Salt Lake Center
08:03PM 39.4747 -113.0239 79° East 518 596 37,000  Level Salt Lake Center
08:04PM 39.5000 -112.8389 80° East 521 600 37,000  Level Salt Lake Center
08:05PM 39.5247 -112.6522 80° East 525 604 37,000  Level Salt Lake Center
08:06PM 39.5542 -112.4489 79° East 523 602 37,000  Level Salt Lake Center
08:07PM 39.5783 -112.2631 80° East 526 605 37,000  Level Salt Lake Center
08:08PM 39.6025 -112.0800 80° East 522 601 37,000  Level Salt Lake Center
08:09PM 39.6275 -111.8961 80° East 521 600 37,000  Level Salt Lake Center
08:10PM 39.6506 -111.7111 81° East 521 600 37,000  Level Salt Lake Center
08:11PM 39.6742 -111.5247 81° East 524 603 37,000  Level Salt Lake Center
08:12PM 39.7008 -111.3028 81° East 523 602 37,000  Level Salt Lake Center
08:13PM 39.7247 -111.1178 80° East 520 598 37,000  Level Salt Lake Center
08:14PM 39.7450 -110.9378 82° East 524 603 37,000  Level Salt Lake Center
08:15PM 39.7711 -110.7294 81° East 523 602 37,000  Level Salt Lake Center
08:16PM 39.7911 -110.5508 82° East 523 602 37,000  Level Salt Lake Center
08:17PM 39.8122 -110.3733 81° East 520 598 37,000  Level Salt Lake Center
08:18PM 39.8356 -110.1664 82° East 518 596 37,000  Level Salt Lake Center
08:19PM 39.8553 -109.9897 82° East 515 593 37,000  Level Salt Lake Center
08:20PM 39.8789 -109.7842 81° East 513 590 37,000  Level Salt Lake Center
08:21PM 39.8969 -109.6078 82° East 513 590 37,000  Level Salt Lake Center
08:22PM 39.9158 -109.4292 82° East 515 593 37,000  Level Denver Center
08:23PM 39.9358 -109.2525 82° East 514 592 37,000  Level Denver Center
08:24PM 39.9569 -109.0456 82° East 514 592 37,000  Level Denver Center
08:25PM 39.9756 -108.8681 82° East 514 592 37,000  Level Denver Center
08:26PM 39.9942 -108.6900 82° East 513 590 37,000  Level Denver Center
08:27PM 40.0139 -108.4833 83° East 511 588 37,000  Level Denver Center
08:29PM 40.0303 -108.3075 83° East 508 585 37,000  Level Denver Center
08:30PM 40.0500 -108.1036 83° East 506 582 37,000  Level Denver Center
08:31PM 40.0675 -107.9283 83° East 507 583 37,000  Level Denver Center
08:32PM 40.1053 -107.7603 74° East 504 580 37,000  Level Denver Center
08:33PM 40.1503 -107.5636 73° East 506 582 37,000  Level Denver Center
08:34PM 40.1889 -107.3950 73° East 505 581 37,000  Level Denver Center
08:35PM 40.2342 -107.1981 73° East 507 583 37,000  Level Denver Center
08:36PM 40.2722 -107.0286 74° East 507 583 37,000  Level Denver Center
08:37PM 40.3122 -106.8503 74° East 506 582 37,000  Level Denver Center
08:38PM 40.3603 -106.6386 73° East 503 579 37,000  Level Denver Center
08:39PM 40.4031 -106.4406 74° East 498 573 37,000  Level Denver Center
08:40PM 40.4386 -106.2742 74° East 496 571 37,000  Level Denver Center
08:41PM 40.4772 -106.0989 74° East 494 568 37,000  Level Denver Center
08:42PM 40.5153 -105.9247 74° East 492 566 37,000  Level Denver Center
08:43PM 40.5511 -105.7500 75° East 490 564 37,000  Level Denver Center
08:44PM 40.5883 -105.5731 74° East 497 572 37,000  Level Denver Center
08:45PM 40.6303 -105.3683 75° East 492 566 37,000  Level Denver Center
08:46PM 40.6656 -105.1917 75° East 493 567 37,000  Level Denver Center
08:47PM 40.7019 -105.0183 74° East 486 559 37,000  Level Denver Center
08:48PM 40.7381 -104.8431 75° East 488 562 37,000  Level Denver Center
08:49PM 40.7736 -104.6700 75° East 479 551 37,000  Level Denver Center
08:50PM 40.8083 -104.4939 75° East 487 560 37,000  Level Denver Center
08:51PM 40.8417 -104.3192 76° East 488 562 37,000  Level Denver Center
08:52PM 40.8767 -104.1425 75° East 492 566 37,000  Level Denver Center
08:53PM 40.9103 -103.9683 76° East 486 559 37,000  Level Denver Center
08:54PM 40.9436 -103.7906 76° East 492 566 37,000  Level Denver Center
08:55PM 40.9783 -103.6158 75° East 487 560 37,000  Level Denver Center
08:56PM 41.0122 -103.4325 76° East 489 563 37,000  Level Denver Center
08:58PM 41.0475 -103.2411 76° East 482 555 37,000  Level Denver Center
08:59PM 41.0875 -103.0253 76° East 475 547 37,000  Level Denver Center
09:00PM 41.1072 -102.8608 81° East 475 547 37,000  Level Denver Center
09:01PM 41.1194 -102.6947 84° East 475 547 37,000  Level Denver Center
09:02PM 41.1339 -102.5017 84° East 472 543 37,000  Level Denver Center
09:03PM 41.1467 -102.3364 84° East 470 541 37,000  Level Denver Center
09:04PM 41.1608 -102.1447 84° East 468 539 37,000 120 Level Denver Center
09:05PM 41.1722 -101.9803 85° East 467 537 37,300 540 Climbing Denver Center
09:06PM 41.1864 -101.7942 84° East 457 526 38,200 660 Climbing Denver Center
09:07PM 41.1975 -101.6314 85° East 462 532 38,700 360 Climbing Denver Center
09:08PM 41.2103 -101.4433 85° East 456 525 39,000 120 Climbing Denver Center
09:09PM 41.2214 -101.2839 85° East 451 519 39,000  Level Denver Center
09:10PM 41.2317 -101.1225 85° East 456 525 39,000  Level Denver Center
09:11PM 41.2439 -100.9342 85° East 455 524 39,000  Level Denver Center
09:12PM 41.2542 -100.7700 85° East 462 532 39,000  Level Denver Center
09:13PM 41.2653 -100.5794 86° East 461 531 39,000  Level Denver Center
09:14PM 41.2750 -100.4169 85° East 459 528 39,000  Level Denver Center
09:15PM 41.2856 -100.2275 86° East 459 528 39,000  Level Denver Center
09:16PM 41.2950 -100.0656 86° East 458 527 39,000  Level Denver Center
09:17PM 41.3036 -99.9039 86° East 457 526 39,000  Level Denver Center
09:18PM 41.3136 -99.7150 86° East 457 526 39,000  Level Denver Center
09:19PM 41.3217 -99.5531 86° East 458 527 39,000  Level Denver Center
09:20PM 41.3314 -99.3597 86° East 458 527 39,000  Level Denver Center
09:21PM 41.3397 -99.1908 86° East 456 525 39,000  Level Denver Center
09:22PM 41.3472 -99.0200 87° East 458 527 39,000  Level Denver Center
09:24PM 41.3558 -98.8494 86° East 456 525 39,000  Level Denver Center
09:25PM 41.3611 -98.7083 87° East 456 525 39,000  Level Minneapolis Center
09:26PM 41.3694 -98.5078 87° East 454 522 39,000  Level Minneapolis Center
09:27PM 41.3758 -98.3403 87° East 455 524 39,000  Level Minneapolis Center
09:28PM 41.3811 -98.1739 88° East 452 520 39,000  Level Minneapolis Center
09:29PM 41.3864 -98.0122 87° East 446 513 39,000  Level Minneapolis Center
09:30PM 41.3928 -97.8181 87° East 440 506 39,000  Level Minneapolis Center
09:31PM 41.3964 -97.6531 88° East 444 511 39,000  Level Minneapolis Center
09:32PM 41.4019 -97.4556 88° East 444 511 39,000  Level Minneapolis Center
09:33PM 41.4069 -97.2906 88° East 445 512 39,000  Level Minneapolis Center
09:34PM 41.4103 -97.1264 88° East 444 511 39,000  Level Minneapolis Center
09:35PM 41.4142 -96.9622 88° East 444 511 39,000  Level Minneapolis Center
09:36PM 41.4175 -96.7983 88° East 442 509 39,000  Level Minneapolis Center
09:37PM 41.4211 -96.6361 88° East 440 506 39,000  Level Minneapolis Center
09:38PM 41.4239 -96.4742 89° East 436 502 39,000  Level Minneapolis Center
09:39PM 41.4258 -96.3072 89° East 440 506 39,000  Level Minneapolis Center
09:40PM 41.4283 -96.1131 89° East 435 501 39,000  Level Minneapolis Center
09:41PM 41.4303 -95.9525 89° East 433 498 39,000  Level Minneapolis Center
09:42PM 41.4331 -95.7897 89° East 436 502 39,000  Level Minneapolis Center
09:43PM 41.4342 -95.6186 89° East 437 503 39,000  Level Minneapolis Center
09:44PM 41.4353 -95.4550 89° East 441 507 39,000  Level Minneapolis Center
09:45PM 41.4364 -95.2900 89° East 444 511 39,000  Level Minneapolis Center
09:46PM 41.4383 -95.1250 89° East 448 516 39,000  Level Minneapolis Center
09:47PM 41.4389 -94.9603 90° East 444 511 39,000  Level Minneapolis Center
09:48PM 41.4394 -94.7997 90° East 438 504 39,000  Level Minneapolis Center
09:49PM 41.4419 -94.6389 89° East 435 501 39,000  Level Minneapolis Center
09:50PM 41.4406 -94.4783 91° East 434 499 39,000  Level Minneapolis Center
09:51PM 41.4394 -94.3158 90° East 439 505 39,000  Level Minneapolis Center
09:52PM 41.4383 -94.1683 91° East 432 497 39,000  Level Minneapolis Center
09:53PM 41.4383 -93.9761 90° East 433 498 39,000  Level Minneapolis Center
09:55PM 41.4364 -93.8161 91° East 434 499 39,000  Level Minneapolis Center
09:56PM 41.4358 -93.6558 90° East 434 499 39,000  Level Minneapolis Center
09:57PM 41.4442 -93.4961 86° East 433 498 39,000  Level Minneapolis Center
09:58PM 41.4522 -93.3353 86° East 436 502 39,000  Level Minneapolis Center
09:59PM 41.4606 -93.1436 87° East 434 499 39,000  Level Minneapolis Center
10:00PM 41.4700 -92.9511 86° East 436 502 39,000  Level Minneapolis Center
10:01PM 41.4761 -92.7883 87° East 438 504 39,000  Level Minneapolis Center
10:02PM 41.4825 -92.6278 87° East 437 503 39,000  Level Minneapolis Center
10:03PM 41.4900 -92.4656 86° East 438 504 39,000  Level Minneapolis Center
10:04PM 41.4981 -92.2375 87° East 440 506 39,000  Level Minneapolis Center
10:05PM 41.5025 -92.0842 88° East 443 510 39,000  Level Chicago Center
10:06PM 41.5086 -91.9242 87° East 441 507 39,000  Level Chicago Center
10:07PM 41.5139 -91.7664 87° East 434 499 39,000  Level Chicago Center
10:08PM 41.5175 -91.6097 88° East 429 494 39,000  Level Chicago Center
10:09PM 41.4883 -91.4317 102° East 417 480 39,000  Level Chicago Center
10:10PM 41.4742 -91.3033 98° East 417 480 39,000  Level Chicago Center
10:11PM 41.4542 -91.1231 98° East 412 474 39,000  Level Chicago Center
10:12PM 41.4375 -90.9722 98° East 411 473 39,000  Level Chicago Center
10:13PM 41.4194 -90.8250 99° East 406 467 39,000  Level Chicago Center
10:14PM 41.4025 -90.6742 98° East 409 471 39,000  Level Chicago Center
10:15PM 41.3842 -90.5261 99° East 406 467 39,000  Level Chicago Center
10:16PM 41.3664 -90.3753 99° East 410 472 39,000  Level Chicago Center
10:17PM 41.3489 -90.2253 99° East 410 472 39,000  Level Chicago Center
10:18PM 41.3306 -90.0728 99° East 415 478 39,000  Level Chicago Center
10:20PM 41.3092 -89.9064 100° East 417 480 39,000  Level Chicago Center
10:21PM 41.2922 -89.7661 99° East 418 481 39,000  Level Chicago Center
10:22PM 41.2739 -89.6128 99° East 419 482 39,000  Level Chicago Center
10:23PM 41.2494 -89.4267 100° East 423 487 39,000  Level Chicago Center
10:24PM 41.2300 -89.2758 100° East 417 480 39,000  Level Chicago Center
10:25PM 41.2086 -89.1158 100° East 418 481 39,000  Level Chicago Center
10:26PM 41.1892 -88.9653 100° East 417 480 39,000  Level Chicago Center
10:27PM 41.1683 -88.8156 100° East 418 481 39,000  Level Chicago Center
10:28PM 41.1472 -88.6672 101° East 415 478 39,000  Level Chicago Center
10:29PM 41.1281 -88.5211 100° East 410 472 39,000  Level Chicago Center
10:30PM 41.1075 -88.3725 100° East 411 473 39,000  Level Chicago Center
10:31PM 41.0833 -88.1942 100° East 414 476 39,000  Level Chicago Center
10:32PM 41.0631 -88.0467 100° East 413 475 39,000  Level Chicago Center
10:33PM 41.0419 -87.8981 101° East 415 478 39,000  Level Chicago Center
10:34PM 41.0200 -87.7497 101° East 413 475 39,000  Level Chicago Center
10:35PM 40.9986 -87.6017 101° East 414 476 39,000  Level Chicago Center
10:36PM 40.9781 -87.4522 100° East 416 479 39,000  Level Chicago Center
10:37PM 40.9558 -87.3033 101° East 417 480 39,000  Level Chicago Center
10:38PM 40.9281 -87.1236 102° East 419 482 39,000  Level Chicago Center
10:39PM 40.9053 -86.9728 101° East 423 487 39,000  Level Chicago Center
10:40PM 40.8828 -86.8219 101° East 423 487 39,000  Level Chicago Center
10:41PM 40.8575 -86.6578 101° East 424 488 39,000  Level Chicago Center
10:42PM 40.8339 -86.5069 102° East 424 488 39,000  Level Chicago Center
10:43PM 40.8094 -86.3553 102° East 424 488 39,000  Level Chicago Center
10:44PM 40.7869 -86.2044 101° East 422 486 39,000  Level Chicago Center
10:45PM 40.7622 -86.0539 102° East 423 487 39,000  Level Chicago Center
10:46PM 40.7375 -85.9025 102° East 424 488 39,000  Level Chicago Center
10:47PM 40.7136 -85.7486 102° East 430 495 39,000  Level Chicago Center
10:48PM 40.6883 -85.5992 103° East 423 487 39,000  Level Chicago Center
10:49PM 40.6608 -85.4258 102° East 425 489 39,000  Level Chicago Center
10:50PM 40.6358 -85.2756 102° East 421 484 39,000  Level Chicago Center
10:51PM 40.6100 -85.1233 103° East 425 489 39,000  Level Chicago Center
10:52PM 40.5842 -84.9697 102° East 425 489 39,000  Level Indianapolis Center
10:53PM 40.5594 -84.8256 103° East 427 491 39,000  Level Indianapolis Center
10:54PM 40.5336 -84.6711 102° East 429 494 39,000 -60 Level Indianapolis Center
10:55PM 40.5064 -84.5178 103° East 428 493 38,900  Descending Indianapolis Center
10:56PM 40.4786 -84.3617 103° East 434 499 39,000  Climbing Indianapolis Center
10:57PM 40.4508 -84.2072 103° East 431 496 39,000  Level Indianapolis Center
10:58PM 40.4236 -84.0525 103° East 431 496 39,000 -60 Level Indianapolis Center
10:59PM 40.3956 -83.8964 103° East 433 498 38,900  Descending Indianapolis Center
11:00PM 40.3672 -83.7414 103° East 434 499 39,000  Climbing Indianapolis Center
11:01PM 40.3392 -83.5839 103° East 436 502 38,900  Descending Indianapolis Center
11:02PM 40.3097 -83.4264 104° East 438 504 39,000  Climbing Indianapolis Center
11:03PM 40.2808 -83.2694 104° East 436 502 38,900 -60 Descending Indianapolis Center
11:04PM 40.2511 -83.1139 104° East 435 501 38,900  Level Indianapolis Center
11:05PM 40.2222 -82.9589 104° East 433 498 39,000  Climbing Indianapolis Center
11:06PM 40.1925 -82.8000 104° East 441 507 39,000  Level Indianapolis Center
11:07PM 40.1619 -82.6425 104° East 442 509 39,000  Level Indianapolis Center
11:08PM 40.1439 -82.4828 98° East 442 509 39,000  Level Indianapolis Center
11:09PM 40.1336 -82.3186 95° East 447 514 39,000  Level Indianapolis Center
11:10PM 40.1217 -82.1558 95° East 446 513 39,000  Level Indianapolis Center
11:11PM 40.1089 -81.9919 96° East 448 516 39,000  Level Indianapolis Center
11:12PM 40.0967 -81.8272 95° East 451 519 39,000  Level Indianapolis Center
11:13PM 40.0836 -81.6647 96° East 450 518 39,000  Level Indianapolis Center
11:14PM 40.0706 -81.4994 96° East 453 521 39,000  Level Indianapolis Center
11:16PM 40.0583 -81.3356 96° East 452 520 39,000  Level Indianapolis Center
11:17PM 40.0381 -81.1442 98° East 453 521 39,000  Level Indianapolis Center
11:18PM 40.0083 -80.9822 103° East 457 526 39,000  Level Indianapolis Center
11:19PM 39.9794 -80.8222 103° East 454 522 39,000  Level Indianapolis Center
11:20PM 39.9511 -80.6589 103° East 458 527 39,000  Level Indianapolis Center
11:21PM 39.9264 -80.5192 103° East 458 527 39,000  Level Indianapolis Center
11:22PM 39.8972 -80.3572 103° East 459 528 39,000  Level Indianapolis Center
11:23PM 39.8683 -80.1944 103° East 458 527 39,000  Level Indianapolis Center
11:24PM 39.8369 -80.0125 103° East 447 514 39,000 -180 Level Washington Center
11:25PM 39.8072 -79.8486 103° East 447 514 38,700 -660 Descending Washington Center
11:26PM 39.7753 -79.6872 104° East 457 526 37,700 -2,040 Descending Washington Center
11:27PM 39.7456 -79.5236 103° East 457 526 34,700 -3,480 Descending Washington Center
11:28PM 39.7133 -79.3519 104° East 463 533 30,800 -3,840 Descending Washington Center
11:29PM 39.6831 -79.1858 103° East 474 545 27,100 -2,880 Descending Washington Center
11:30PM 39.6503 -79.0253 105° East 474 545 25,000 -2,520 Descending Washington Center
11:31PM 39.6092 -78.8508 107° East 463 533 22,100 -2,040 Descending Washington Center
11:32PM 39.5758 -78.6958 106° East 457 526 21,000 -600 Descending Washington Center
11:33PM 39.5419 -78.5464 106° East 443 510 21,000 -360 Level Washington Center
11:34PM 39.5103 -78.3969 105° East 443 510 20,300 -1,620 Descending Washington Center
11:35PM 39.4758 -78.2533 107° East 438 504 17,900 -2,580 Descending Washington Center
11:36PM 39.4456 -78.1097 105° East 420 483 15,100 -1,440 Descending Washington Center
11:37PM 39.4108 -77.9742 108° East 410 472 15,000 -60 Descending Washington Center
11:38PM 39.3886 -77.8392 102° East 397 457 15,000  Level Washington Center
11:39PM 39.4036 -77.7000 82° East 379 436 15,000 -1,560 Level Washington Center
11:40PM 39.4225 -77.5608 80° East 384 442 12,000 -2,280 Descending Washington Center
11:41PM 39.4183 -77.4317 92° East 374 430 10,400 -1,320 Descending Washington Center
11:41PM 39.4000 -77.3667 110° East 316 364 10,000 -840 Descending Potomac TRACON
11:42PM 39.3667 -77.2667 113° Southeast 274 315 9,100 -660 Descending Potomac TRACON
11:43PM 39.3333 -77.2000 123° Southeast 239 275 8,700 -840 Descending Potomac TRACON
11:44PM 39.3000 -77.1167 117° Southeast 231 266 7,500 -1,260 Descending Potomac TRACON
11:45PM 39.2833 -77.0500 108° East 217 250 6,200 -1,200 Descending Potomac TRACON
11:46PM 39.2500 -76.9833 123° Southeast 196 226 5,200 -1,200 Descending Potomac TRACON
11:47PM 39.2333 -76.9167 108° East 191 220 3,900 -1,260 Descending Potomac TRACON
11:48PM 39.2167 -76.8667 113° Southeast 180 207 2,700 -960 Descending Potomac TRACON
11:49PM 39.1833 -76.8000 123° Southeast 174 200 2,000 -720 Descending Potomac TRACON